METAR Data

Data at: 2339 UTC 26 Feb 2020

METAR for:KHYA (Hyannis/Barnstable M, MA, US)
Text:KHYA 262315Z 05007KT 3SM BR OVC003 07/06 A2992 RMK AO2 T00720056
Temperature: 7.2°C ( 45°F)
Dewpoint: 5.6°C ( 42°F) [RH = 90%]
Pressure (altimeter):29.92 inches Hg (1013.3 mb)
Winds:from the NE (50 degrees) at 8 MPH (7 knots; 3.6 m/s)
Visibility: 3 sm ( 5 km)
Ceiling:300 feet AGL
Clouds: overcast cloud deck at 300 feet AGL
Weather:BR (mist)